createdAt,value
2023-05-24T00:01:37.727Z,17.04
2023-05-24T00:04:41.720Z,16.90
2023-05-24T00:07:44.387Z,16.92
2023-05-24T00:10:46.865Z,16.99
2023-05-24T00:13:49.899Z,16.98
2023-05-24T00:16:52.451Z,16.95
2023-05-24T00:19:54.899Z,16.78
2023-05-24T00:22:57.287Z,16.55
2023-05-24T00:25:59.871Z,16.32
2023-05-24T00:29:02.467Z,16.23
2023-05-24T00:32:05.233Z,16.18
2023-05-24T00:35:08.073Z,16.07
2023-05-24T00:38:10.628Z,16.07
2023-05-24T00:41:13.173Z,16.16
2023-05-24T00:44:15.749Z,16.16
2023-05-24T00:47:18.347Z,16.14
2023-05-24T00:50:22.173Z,16.16
2023-05-24T00:53:24.549Z,16.17
2023-05-24T00:56:28.068Z,16.39
2023-05-24T00:59:31.221Z,16.56
2023-05-24T01:02:33.740Z,16.62
2023-05-24T01:05:36.296Z,16.74
2023-05-24T01:08:58.153Z,16.68
2023-05-24T01:12:16.566Z,16.69
2023-05-24T01:15:23.253Z,16.78
2023-05-24T01:18:30.605Z,16.72
2023-05-24T01:21:50.635Z,16.59
2023-05-24T01:25:11.789Z,16.49
2023-05-24T01:28:14.687Z,16.59
2023-05-24T01:31:18.853Z,16.39
2023-05-24T01:34:26.661Z,16.32
2023-05-24T01:37:29.097Z,16.05
2023-05-24T01:40:31.569Z,16.37
2023-05-24T01:44:03.461Z,16.41
2023-05-24T01:47:21.806Z,16.34
2023-05-24T01:50:32.830Z,16.28
2023-05-24T01:53:37.988Z,16.05
2023-05-24T01:56:42.050Z,16.01
2023-05-24T01:59:45.216Z,16.37
2023-05-24T02:02:49.752Z,16.15
2023-05-24T02:05:53.335Z,16.14
2023-05-24T02:08:55.772Z,16.22
2023-05-24T02:11:58.263Z,16.26
2023-05-24T02:15:01.752Z,16.30
2023-05-24T02:18:04.701Z,16.40
2023-05-24T02:21:07.265Z,16.39
2023-05-24T02:24:12.608Z,16.50
2023-05-24T02:27:15.228Z,16.56
2023-05-24T02:30:17.685Z,16.63
2023-05-24T02:33:20.120Z,16.56
2023-05-24T02:36:23.774Z,16.35
2023-05-24T02:39:26.391Z,16.18
2023-05-24T02:42:29.391Z,16.18
2023-05-24T02:45:31.900Z,16.29
2023-05-24T02:48:34.289Z,16.38
2023-05-24T02:51:39.655Z,16.33
2023-05-24T02:54:42.451Z,16.36
2023-05-24T02:57:45.067Z,16.26
2023-05-24T03:00:48.014Z,16.07
2023-05-24T03:03:50.820Z,15.93
2023-05-24T03:06:53.748Z,16.30
2023-05-24T03:09:56.309Z,16.41
2023-05-24T03:12:59.473Z,16.35
2023-05-24T03:16:02.050Z,16.16
2023-05-24T03:19:08.437Z,16.06
2023-05-24T03:22:12.704Z,16.11
2023-05-24T03:25:15.177Z,16.07
2023-05-24T03:28:17.802Z,16.38
2023-05-24T03:31:21.141Z,16.36
2023-05-24T03:34:24.058Z,16.37
2023-05-24T03:37:26.462Z,16.30
2023-05-24T03:40:32.550Z,16.34
2023-05-24T03:43:42.413Z,16.31
2023-05-24T03:46:50.685Z,16.37
2023-05-24T03:49:53.108Z,16.45
2023-05-24T03:52:55.653Z,16.38
2023-05-24T03:55:59.002Z,16.38
2023-05-24T03:59:04.129Z,16.30
2023-05-24T04:02:08.390Z,16.20
2023-05-24T04:05:11.270Z,16.23
2023-05-24T04:08:15.226Z,16.27
2023-05-24T04:11:17.673Z,16.03
2023-05-24T04:14:21.140Z,16.04
2023-05-24T04:17:25.083Z,16.09
2023-05-24T04:20:29.425Z,16.22
2023-05-24T04:23:32.102Z,16.31
2023-05-24T04:26:35.231Z,16.26
2023-05-24T04:29:39.410Z,16.27
2023-05-24T04:32:41.865Z,16.38
2023-05-24T04:35:45.832Z,16.48
2023-05-24T04:38:49.231Z,16.64
2023-05-24T04:41:53.245Z,16.72
2023-05-24T04:44:55.775Z,16.91
2023-05-24T04:47:58.228Z,17.07
2023-05-24T04:51:00.710Z,17.46
2023-05-24T04:54:08.999Z,17.79
2023-05-24T04:57:11.936Z,18.08
2023-05-24T05:00:14.808Z,18.55
2023-05-24T05:03:17.233Z,18.59
2023-05-24T05:06:19.798Z,18.89
2023-05-24T05:09:24.467Z,19.44
2023-05-24T05:12:27.013Z,19.60
2023-05-24T05:15:29.626Z,19.53
2023-05-24T05:18:32.893Z,19.52
2023-05-24T05:21:36.574Z,19.50
2023-05-24T05:24:39.023Z,19.56
2023-05-24T05:27:41.520Z,19.82
2023-05-24T05:30:44.138Z,20.63
2023-05-24T05:33:46.681Z,20.93
2023-05-24T05:36:49.104Z,20.98
2023-05-24T05:39:51.538Z,22.22
2023-05-24T05:42:54.016Z,22.73
2023-05-24T05:45:57.247Z,23.43
2023-05-24T05:48:59.853Z,23.63
2023-05-24T05:52:05.882Z,23.90
2023-05-24T05:55:09.522Z,23.33
2023-05-24T05:58:12.544Z,23.39
2023-05-24T06:01:17.001Z,24.02
2023-05-24T06:04:19.666Z,24.24
2023-05-24T06:07:22.106Z,24.18
2023-05-24T06:10:24.646Z,24.25
2023-05-24T06:13:28.445Z,24.46
2023-05-24T06:16:32.710Z,23.74
2023-05-24T06:19:35.157Z,22.84
2023-05-24T06:22:39.960Z,23.29
2023-05-24T06:25:43.994Z,23.17
2023-05-24T06:28:46.518Z,22.97
2023-05-24T06:31:49.882Z,23.11
2023-05-24T06:34:52.717Z,22.99
2023-05-24T06:37:55.098Z,22.89
2023-05-24T06:40:57.456Z,22.60
2023-05-24T06:43:59.922Z,22.33
2023-05-24T06:47:02.906Z,22.53
2023-05-24T06:50:05.843Z,22.68
2023-05-24T06:53:08.295Z,22.72
2023-05-24T06:56:10.733Z,22.37
2023-05-24T06:59:13.124Z,22.63
2023-05-24T07:02:15.540Z,23.19
2023-05-24T07:05:17.995Z,23.02
2023-05-24T07:08:20.401Z,23.18
2023-05-24T07:11:23.077Z,23.39
2023-05-24T07:14:27.493Z,22.76
2023-05-24T07:17:30.164Z,22.54
2023-05-24T07:20:32.734Z,22.51
2023-05-24T07:23:35.558Z,22.65
2023-05-24T07:26:37.983Z,23.16
2023-05-24T07:29:40.329Z,23.46
2023-05-24T07:32:42.782Z,23.56
2023-05-24T07:35:51.245Z,23.49
2023-05-24T07:38:53.584Z,23.19
2023-05-24T07:41:56.063Z,23.64
2023-05-24T07:44:58.525Z,23.30
2023-05-24T07:48:01.373Z,22.94
2023-05-24T07:51:03.920Z,23.21
2023-05-24T07:54:06.822Z,23.91
2023-05-24T07:57:09.639Z,23.75
2023-05-24T08:00:14.923Z,23.83
2023-05-24T08:03:18.072Z,23.70
2023-05-24T08:06:20.654Z,24.21
2023-05-24T08:09:23.650Z,24.64
2023-05-24T08:12:26.257Z,24.66
2023-05-24T08:15:28.725Z,24.74
2023-05-24T08:18:31.302Z,24.37
2023-05-24T08:21:34.092Z,24.02
2023-05-24T08:24:36.462Z,24.14
2023-05-24T08:27:38.867Z,24.34
2023-05-24T08:30:41.392Z,24.53
2023-05-24T08:33:43.887Z,24.77
2023-05-24T08:36:46.382Z,24.76
2023-05-24T08:39:49.164Z,25.20
2023-05-24T08:42:53.298Z,25.63
2023-05-24T08:45:58.820Z,25.22
2023-05-24T08:49:03.639Z,25.38
2023-05-24T08:52:07.805Z,25.44
2023-05-24T08:55:10.913Z,25.65
2023-05-24T08:58:13.913Z,25.15
2023-05-24T09:01:17.790Z,24.81
2023-05-24T09:04:22.099Z,24.44
2023-05-24T09:07:25.422Z,24.86
2023-05-24T09:10:33.137Z,24.76
2023-05-24T09:13:41.182Z,24.56
2023-05-24T09:16:45.125Z,24.28
2023-05-24T09:19:47.693Z,24.49
2023-05-24T09:22:53.224Z,24.76
2023-05-24T09:25:55.704Z,24.90
2023-05-24T09:28:58.224Z,25.31
2023-05-24T09:32:00.650Z,25.17
2023-05-24T09:35:03.264Z,25.15
2023-05-24T09:38:06.335Z,25.19
2023-05-24T09:41:11.049Z,25.28
2023-05-24T09:44:15.480Z,25.35
2023-05-24T09:47:17.986Z,24.81
2023-05-24T09:50:20.445Z,24.54
2023-05-24T09:53:23.273Z,24.87
2023-05-24T09:56:25.834Z,24.72
2023-05-24T09:59:28.777Z,24.93
2023-05-24T10:02:41.318Z,25.06
2023-05-24T10:05:48.519Z,24.87
2023-05-24T10:08:54.572Z,24.71
2023-05-24T10:11:57.010Z,24.76
2023-05-24T10:15:00.177Z,24.40
2023-05-24T10:18:09.848Z,24.41
2023-05-24T10:21:14.556Z,24.76
2023-05-24T10:24:19.317Z,24.48
2023-05-24T10:27:28.830Z,24.36
2023-05-24T10:30:42.869Z,24.20
2023-05-24T10:33:48.606Z,24.13
2023-05-24T10:36:51.641Z,23.97
2023-05-24T10:39:54.508Z,24.25
2023-05-24T10:42:57.062Z,24.29
2023-05-24T10:45:59.680Z,24.67
2023-05-24T10:49:04.152Z,24.94
2023-05-24T10:52:10.805Z,25.06
2023-05-24T10:55:13.408Z,25.14
2023-05-24T10:58:15.871Z,25.22
2023-05-24T11:01:32.137Z,25.22
2023-05-24T11:04:37.943Z,25.01
2023-05-24T11:07:43.709Z,25.12
2023-05-24T11:10:46.706Z,25.29
2023-05-24T11:13:49.466Z,25.48
2023-05-24T11:16:52.044Z,25.35
2023-05-24T11:19:56.046Z,25.34
2023-05-24T11:22:59.859Z,25.69
2023-05-24T11:26:04.496Z,25.97
2023-05-24T11:29:07.899Z,26.16
2023-05-24T11:32:10.518Z,25.82
2023-05-24T11:35:13.029Z,25.76
2023-05-24T11:38:17.122Z,25.39
2023-05-24T11:41:19.576Z,25.30
2023-05-24T11:44:22.692Z,25.06
2023-05-24T11:47:25.399Z,24.80
2023-05-24T11:50:28.895Z,24.87
2023-05-24T11:53:31.348Z,24.85
2023-05-24T11:56:34.363Z,24.76
2023-05-24T11:59:38.229Z,24.55
2023-05-24T12:02:41.765Z,24.56
2023-05-24T12:05:44.643Z,24.84
2023-05-24T12:08:48.004Z,24.59
2023-05-24T12:11:51.592Z,24.40
2023-05-24T12:14:56.845Z,24.14
2023-05-24T12:17:59.734Z,24.33
2023-05-24T12:21:02.182Z,24.45
2023-05-24T12:24:15.296Z,24.33
2023-05-24T12:27:17.794Z,24.71
2023-05-24T12:30:26.532Z,24.57
2023-05-24T12:33:29.168Z,24.83
2023-05-24T12:36:31.735Z,25.00
2023-05-24T12:39:37.514Z,25.17
2023-05-24T12:42:39.951Z,24.81
2023-05-24T12:45:42.412Z,24.44
2023-05-24T12:48:45.536Z,24.15
2023-05-24T12:51:49.334Z,24.07
2023-05-24T12:54:52.261Z,23.76
2023-05-24T12:57:56.335Z,23.72
2023-05-24T13:00:59.198Z,24.23
2023-05-24T13:04:01.663Z,24.13
2023-05-24T13:07:04.163Z,24.51
2023-05-24T13:10:08.246Z,24.75
2023-05-24T13:13:10.780Z,25.21
2023-05-24T13:16:13.639Z,25.37
2023-05-24T13:19:16.699Z,25.47
2023-05-24T13:22:20.092Z,25.70
2023-05-24T13:25:22.824Z,25.65
2023-05-24T13:28:25.741Z,25.44
2023-05-24T13:31:28.476Z,25.35
2023-05-24T13:34:31.130Z,25.41
2023-05-24T13:37:33.640Z,25.61
2023-05-24T13:40:38.349Z,25.47
2023-05-24T13:43:42.555Z,25.54
2023-05-24T13:46:45.938Z,25.89
2023-05-24T13:49:48.986Z,25.77
2023-05-24T13:52:51.765Z,25.62
2023-05-24T13:55:55.027Z,25.65
2023-05-24T13:58:57.799Z,25.73
2023-05-24T14:02:00.393Z,25.67
2023-05-24T14:05:21.683Z,25.65
2023-05-24T14:08:26.005Z,25.41
2023-05-24T14:11:31.709Z,25.55
2023-05-24T14:17:40.202Z,25.56
2023-05-24T14:20:43.007Z,25.59
2023-05-24T14:23:45.440Z,25.44
2023-05-24T14:26:47.957Z,25.60
2023-05-24T14:29:51.970Z,25.98
2023-05-24T14:32:54.780Z,25.66
2023-05-24T14:35:57.206Z,25.84
2023-05-24T14:38:59.643Z,25.72
2023-05-24T14:42:02.077Z,25.79
2023-05-24T14:45:04.995Z,25.74
2023-05-24T14:48:11.670Z,25.97
2023-05-24T14:51:14.581Z,26.38
2023-05-24T14:54:16.990Z,26.52
2023-05-24T14:57:19.420Z,26.76
2023-05-24T15:00:23.245Z,26.66
2023-05-24T15:03:26.595Z,26.32
2023-05-24T15:06:34.890Z,26.28
2023-05-24T15:09:37.421Z,26.42
2023-05-24T15:12:40.022Z,26.48
2023-05-24T15:15:43.472Z,26.86
2023-05-24T15:18:47.822Z,26.69
2023-05-24T15:21:51.365Z,26.65
2023-05-24T15:24:53.861Z,26.09
2023-05-24T15:27:56.889Z,26.17
2023-05-24T15:31:03.320Z,26.46
2023-05-24T15:34:07.697Z,26.17
2023-05-24T15:37:12.360Z,25.76
2023-05-24T15:40:19.251Z,25.70
2023-05-24T15:43:22.086Z,25.74
2023-05-24T15:46:25.234Z,25.66
2023-05-24T15:49:29.580Z,25.68
2023-05-24T15:52:33.725Z,25.38
2023-05-24T15:55:37.474Z,25.19
2023-05-24T15:58:39.922Z,24.83
2023-05-24T16:01:42.718Z,24.76
2023-05-24T16:04:45.314Z,24.48
2023-05-24T16:07:47.844Z,24.43
2023-05-24T16:10:50.499Z,24.00
2023-05-24T16:13:54.417Z,24.07
2023-05-24T16:16:58.808Z,23.75
2023-05-24T16:20:01.757Z,23.66
2023-05-24T16:23:04.529Z,24.07
2023-05-24T16:26:07.113Z,23.58
2023-05-24T16:29:11.527Z,23.47
2023-05-24T16:32:14.388Z,23.41
2023-05-24T16:35:17.099Z,23.37
2023-05-24T16:38:19.671Z,23.33
2023-05-24T16:41:22.371Z,23.43
2023-05-24T16:44:24.790Z,23.09
2023-05-24T16:47:29.588Z,22.96
2023-05-24T16:50:33.728Z,22.85
2023-05-24T16:53:36.312Z,22.80
2023-05-24T16:56:38.831Z,22.93
2023-05-24T16:59:42.431Z,22.74
2023-05-24T17:02:45.293Z,22.43
2023-05-24T17:05:49.406Z,22.37
2023-05-24T17:08:51.937Z,22.47
2023-05-24T17:11:54.459Z,22.39
2023-05-24T17:14:57.030Z,22.55
2023-05-24T17:17:59.815Z,22.49
2023-05-24T17:21:04.564Z,22.48
2023-05-24T17:24:07.248Z,22.15
2023-05-24T17:27:09.716Z,21.80
2023-05-24T17:30:12.776Z,21.37
2023-05-24T17:33:15.205Z,20.93
2023-05-24T17:36:17.672Z,20.84
2023-05-24T17:39:21.472Z,20.48
2023-05-24T17:42:25.000Z,20.20
2023-05-24T17:45:27.583Z,19.97
2023-05-24T17:48:32.934Z,19.91
2023-05-24T17:51:35.501Z,19.73
2023-05-24T17:54:37.971Z,19.88
2023-05-24T17:57:40.428Z,19.97
2023-05-24T18:00:42.847Z,19.66
2023-05-24T18:03:45.331Z,19.36
2023-05-24T18:06:47.707Z,19.19
2023-05-24T18:09:50.165Z,19.04
2023-05-24T18:12:52.550Z,18.88
2023-05-24T18:15:57.070Z,18.62
2023-05-24T18:18:59.720Z,18.56
2023-05-24T18:22:02.160Z,18.47
2023-05-24T18:25:04.908Z,18.48
2023-05-24T18:28:07.506Z,18.42
2023-05-24T18:31:10.735Z,18.28
2023-05-24T18:34:13.864Z,18.07
2023-05-24T18:37:16.505Z,18.07
2023-05-24T18:40:18.984Z,17.83
2023-05-24T18:43:21.552Z,17.76
2023-05-24T18:46:26.071Z,17.59
2023-05-24T18:49:28.600Z,17.47
2023-05-24T18:52:31.113Z,17.41
2023-05-24T18:55:33.593Z,17.41
2023-05-24T18:58:36.177Z,17.32
2023-05-24T19:01:38.567Z,17.10
2023-05-24T19:04:41.026Z,17.33
2023-05-24T19:07:43.537Z,17.24
2023-05-24T19:10:46.180Z,17.22
2023-05-24T19:13:48.600Z,17.22
2023-05-24T19:16:51.085Z,17.39
2023-05-24T19:19:53.500Z,17.12
2023-05-24T19:22:57.281Z,16.72
2023-05-24T19:25:59.787Z,16.29
2023-05-24T19:29:02.346Z,16.21
2023-05-24T19:32:05.124Z,16.20
2023-05-24T19:35:08.495Z,16.48
2023-05-24T19:38:12.233Z,16.33
2023-05-24T19:41:14.818Z,16.53
2023-05-24T19:44:17.232Z,16.01
2023-05-24T19:47:19.696Z,15.99
2023-05-24T19:50:22.376Z,15.69
2023-05-24T19:53:24.909Z,15.63
2023-05-24T19:56:27.579Z,15.89
2023-05-24T19:59:30.358Z,15.81
2023-05-24T20:02:35.540Z,15.85
2023-05-24T20:05:39.590Z,15.61
2023-05-24T20:08:42.396Z,15.36
2023-05-24T20:11:48.380Z,15.22
2023-05-24T20:14:52.723Z,15.51
2023-05-24T20:17:55.384Z,15.35
2023-05-24T20:20:57.828Z,15.07
2023-05-24T20:24:00.428Z,14.95
2023-05-24T20:27:03.201Z,14.83
2023-05-24T20:30:06.542Z,15.04
2023-05-24T20:33:08.926Z,15.14
2023-05-24T20:36:11.563Z,14.95
2023-05-24T20:39:13.995Z,14.82
2023-05-24T20:42:16.685Z,14.89
2023-05-24T20:45:19.964Z,14.62
2023-05-24T20:48:23.400Z,14.33
2023-05-24T20:51:25.832Z,14.39
2023-05-24T20:54:28.158Z,14.49
2023-05-24T20:57:30.985Z,14.38
2023-05-24T21:00:33.494Z,14.33
2023-05-24T21:03:36.156Z,14.33
2023-05-24T21:06:40.112Z,14.36
2023-05-24T21:09:42.946Z,14.48
2023-05-24T21:12:45.713Z,14.21
2023-05-24T21:15:48.467Z,14.42
2023-05-24T21:18:52.238Z,14.10
2023-05-24T21:21:54.709Z,14.11
2023-05-24T21:24:57.163Z,14.13
2023-05-24T21:27:59.719Z,14.00
2023-05-24T21:31:02.189Z,13.99
2023-05-24T21:34:04.521Z,14.02
2023-05-24T21:37:07.277Z,13.93
2023-05-24T21:40:10.125Z,14.09
2023-05-24T21:43:12.673Z,13.78
2023-05-24T21:46:15.127Z,13.80
2023-05-24T21:49:18.285Z,14.03
2023-05-24T21:52:20.790Z,13.79
2023-05-24T21:55:23.331Z,13.61
2023-05-24T21:58:26.434Z,13.51
2023-05-24T22:01:29.039Z,13.63
2023-05-24T22:04:31.504Z,13.73
2023-05-24T22:07:34.029Z,13.60
2023-05-24T22:10:36.514Z,13.41
2023-05-24T22:13:39.256Z,13.41
2023-05-24T22:16:41.793Z,13.40
2023-05-24T22:19:44.215Z,13.28
2023-05-24T22:22:53.733Z,13.21
2023-05-24T22:25:56.243Z,13.17
2023-05-24T22:29:04.443Z,13.33
2023-05-24T22:32:07.114Z,13.20
2023-05-24T22:35:10.091Z,13.11
2023-05-24T22:38:12.429Z,13.00
2023-05-24T22:41:14.803Z,13.09
2023-05-24T22:44:17.282Z,13.07
2023-05-24T22:47:22.022Z,13.21
2023-05-24T22:50:25.707Z,13.02
2023-05-24T22:53:28.883Z,12.96
2023-05-24T22:56:32.412Z,12.95
2023-05-24T22:59:35.833Z,12.88
2023-05-24T23:02:38.324Z,12.75
2023-05-24T23:05:41.902Z,12.73
2023-05-24T23:08:44.568Z,12.59
2023-05-24T23:11:47.044Z,12.55
2023-05-24T23:14:49.664Z,12.72
2023-05-24T23:17:56.471Z,12.62
2023-05-24T23:21:00.648Z,12.61
2023-05-24T23:24:05.252Z,12.79
2023-05-24T23:27:07.706Z,12.75
2023-05-24T23:30:10.861Z,12.64
2023-05-24T23:33:13.281Z,12.73
2023-05-24T23:36:15.860Z,12.63
2023-05-24T23:39:18.330Z,12.73
2023-05-24T23:42:20.709Z,12.64
2023-05-24T23:45:23.711Z,12.60
2023-05-24T23:48:26.188Z,12.59
2023-05-24T23:51:34.029Z,12.39
2023-05-24T23:54:37.006Z,12.36
2023-05-24T23:57:42.069Z,12.48
